Time;durP1;ratioP1;P1;durP2;ratioP2;P2;SDS_P1;SDS_P2;PMS_P1;PMS_P2;Temp;Humidity;BMP_temperature;BMP_pressure;BME280_temperature;BME280_humidity;BME280_pressure;Samples;Min_cycle;Max_cycle;Signal;HPM_P1;HPM_P2
2022/05/25 00:00:56;;;;;;;;;18.00;17.00;;;;;21.81;56.77;98310.34;6275761;27;100058;-70
2022/05/25 00:04:00;;;;;;;;;20.00;18.00;;;;;21.96;56.64;98318.25;6266040;27;96757;-70
2022/05/25 00:07:04;;;;;;;;;19.80;18.40;;;;;21.97;56.46;98320.72;6282041;27;96782;-70
2022/05/25 00:10:08;;;;;;;;;18.00;17.00;;;;;22.01;56.49;98323.63;6286742;27;96533;-69
2022/05/25 00:13:13;;;;;;;;;18.50;15.75;;;;;22.04;55.59;98332.06;6269066;27;97552;-69
2022/05/25 00:16:17;;;;;;;;;20.00;18.00;;;;;22.03;56.65;98326.91;6287986;27;97186;-68
2022/05/25 00:22:47;;;;;;;;;17.40;17.00;;;;;22.06;55.82;98330.94;6250520;27;97701;-67
2022/05/25 00:25:50;;;;;;;;;18.60;18.40;;;;;22.04;55.88;98328.50;6267782;27;97230;-69
2022/05/25 00:28:55;;;;;;;;;19.80;17.80;;;;;22.08;55.79;98336.94;6286607;27;96471;-67
2022/05/25 00:31:59;;;;;;;;;18.00;16.00;;;;;22.10;55.75;98329.19;6286390;27;97963;-69
2022/05/25 00:35:02;;;;;;;;;21.40;20.40;;;;;22.10;55.58;98343.72;6266216;27;97325;-70
2022/05/25 00:38:07;;;;;;;;;20.60;19.00;;;;;22.13;55.65;98334.09;6285780;27;97552;-67
2022/05/25 00:41:11;;;;;;;;;18.00;16.00;;;;;22.10;55.77;98335.50;6268459;27;97024;-67
2022/05/25 00:44:15;;;;;;;;;22.60;19.00;;;;;22.12;55.83;98348.94;6283283;27;96691;-70
2022/05/25 00:47:25;;;;;;;;;21.00;17.40;;;;;22.15;55.54;98348.28;6285796;27;96912;-68
2022/05/25 00:51:11;;;;;;;;;19.00;18.00;;;;;22.14;55.87;98349.44;6266933;27;97320;-67
2022/05/25 00:53:57;;;;;;;;;20.00;18.00;;;;;22.14;56.10;98349.44;6255136;27;96624;-68
2022/05/25 00:57:05;;;;;;;;;18.00;18.00;;;;;22.13;56.56;98356.03;6286416;27;97475;-68
2022/05/25 01:00:12;;;;;;;;;17.60;17.40;;;;;22.11;55.74;98356.34;6266889;27;97466;-67
2022/05/25 01:03:16;;;;;;;;;17.00;17.00;;;;;22.06;56.11;98347.41;6286313;27;97347;-71
2022/05/25 01:06:33;;;;;;;;;17.40;16.80;;;;;22.12;56.12;98370.88;6286123;27;97163;-70
2022/05/25 01:09:49;;;;;;;;;20.40;18.00;;;;;22.09;56.23;98355.81;6257492;27;96495;-70
2022/05/25 01:13:08;;;;;;;;;19.00;18.00;;;;;22.11;56.29;98358.28;6286212;27;97491;-70
2022/05/25 01:16:27;;;;;;;;;20.60;19.00;;;;;22.09;56.19;98371.53;6274600;27;96511;-68
2022/05/25 01:20:02;;;;;;;;;19.00;17.60;;;;;22.08;56.31;98375.38;6286512;27;97016;-70
2022/05/25 01:23:42;;;;;;;;;19.80;18.20;;;;;22.08;56.40;98373.44;6274031;27;97448;-68
2022/05/25 01:27:22;;;;;;;;;20.00;19.00;;;;;22.08;56.29;98376.19;6266825;27;97801;-70
2022/05/25 01:30:34;;;;;;;;;20.00;19.00;;;;;22.06;56.90;98374.88;6281326;27;97063;-70
2022/05/25 01:33:42;;;;;;;;;25.25;22.00;;;;;22.05;56.58;98382.28;6262301;27;99618;-70
2022/05/25 01:36:55;;;;;;;;;23.40;21.40;;;;;22.07;56.35;98391.03;6248904;27;96744;-70
2022/05/25 01:40:09;;;;;;;;;21.40;19.40;;;;;22.06;56.41;98392.16;6266991;27;96700;-69
2022/05/25 01:43:16;;;;;;;;;23.00;20.00;;;;;22.01;56.21;98384.84;6280446;27;96769;-68
2022/05/25 01:46:26;;;;;;;;;21.60;20.00;;;;;22.03;56.13;98382.59;6283973;27;96911;-71
2022/05/25 01:49:36;;;;;;;;;20.00;19.00;;;;;22.02;56.23;98378.25;6267323;27;97580;-70
2022/05/25 01:52:44;;;;;;;;;24.00;20.00;;;;;22.03;55.90;98388.09;6283999;27;97429;-70
2022/05/25 01:55:50;;;;;;;;;20.60;18.60;;;;;22.04;56.08;98391.63;6285587;27;96644;-67
2022/05/25 01:58:58;;;;;;;;;20.00;17.80;;;;;22.04;55.83;98392.44;6268225;27;97491;-68
2022/05/25 02:05:28;;;;;;;;;21.25;18.75;;;;;22.08;55.69;98389.91;6285131;27;97532;-70
2022/05/25 02:08:41;;;;;;;;;19.00;17.50;;;;;22.09;55.67;98399.75;6284186;27;97398;-69
2022/05/25 02:11:47;;;;;;;;;20.40;18.00;;;;;22.08;55.67;98394.59;6266016;27;96715;-69
2022/05/25 02:15:00;;;;;;;;;20.00;18.00;;;;;22.08;55.79;98395.41;6267655;27;96703;-67
2022/05/25 02:18:10;;;;;;;;;19.20;18.00;;;;;22.09;55.71;98394.25;6259841;27;96520;-67
2022/05/25 02:21:17;;;;;;;;;20.50;19.00;;;;;22.09;55.85;98399.75;6281613;27;98590;-67
2022/05/25 02:24:28;;;;;;;;;20.60;19.60;;;;;22.09;55.88;98393.47;6261586;27;97132;-69
2022/05/25 02:27:36;;;;;;;;;22.00;20.00;;;;;22.09;56.03;98390.72;6283364;27;98452;-68
2022/05/25 02:30:46;;;;;;;;;23.20;20.00;;;;;22.08;56.34;98395.41;6286920;27;97183;-66
2022/05/25 02:33:53;;;;;;;;;21.40;21.40;;;;;22.09;56.29;98393.47;6281341;27;98365;-67
2022/05/25 02:36:58;;;;;;;;;23.40;20.40;;;;;22.07;56.40;98390.22;6288892;27;97144;-68
2022/05/25 02:40:07;;;;;;;;;20.75;19.00;;;;;22.06;56.17;98386.66;6290055;27;96625;-69
2022/05/25 02:43:11;;;;;;;;;22.00;20.00;;;;;22.06;56.54;98386.66;6246478;27;97418;-69
2022/05/25 02:46:14;;;;;;;;;20.60;19.00;;;;;22.01;56.00;98389.50;6266033;27;97740;-66
2022/05/25 02:49:19;;;;;;;;;24.40;22.00;;;;;22.07;56.44;98391.03;6289931;27;96623;-65
2022/05/25 02:52:23;;;;;;;;;22.40;21.00;;;;;22.06;56.49;98392.16;6288372;27;96476;-66
2022/05/25 02:55:26;;;;;;;;;20.00;20.00;;;;;22.07;56.52;98395.72;6271412;27;96973;-66
2022/05/25 02:58:30;;;;;;;;;22.80;20.00;;;;;22.07;56.60;98387.47;6270375;27;98229;-68
2022/05/25 03:01:33;;;;;;;;;21.40;20.40;;;;;22.06;56.84;98394.06;6260779;27;97892;-66
2022/05/25 03:04:40;;;;;;;;;24.00;23.00;;;;;22.06;57.05;98386.66;6269314;27;98584;-68
2022/05/25 03:07:43;;;;;;;;;21.60;19.60;;;;;22.07;57.17;98393.78;6281890;27;97501;-68
2022/05/25 03:10:47;;;;;;;;;24.40;22.60;;;;;22.09;56.98;98388.78;6284579;27;96601;-69
2022/05/25 03:13:50;;;;;;;;;24.00;22.00;;;;;22.12;56.66;98390.91;6271393;27;97552;-66
2022/05/25 03:16:53;;;;;;;;;29.00;24.00;;;;;22.10;56.74;98389.59;6287290;27;96853;-66
2022/05/25 03:19:59;;;;;;;;;26.00;23.00;;;;;22.10;57.13;98406.88;6288004;27;97300;-66
2022/05/25 03:23:02;;;;;;;;;25.50;24.00;;;;;22.06;56.80;98403.13;6286455;27;97478;-65
2022/05/25 03:26:06;;;;;;;;;24.50;21.50;;;;;22.04;57.20;98400.69;6287154;27;96713;-66
2022/05/25 03:29:11;;;;;;;;;24.80;21.20;;;;;21.95;57.47;98405.28;6269691;27;97806;-67
2022/05/25 03:32:14;;;;;;;;;22.40;20.40;;;;;21.89;57.41;98413.91;6284846;27;97617;-66
2022/05/25 03:35:19;;;;;;;;;21.20;20.00;;;;;21.81;57.55;98415.44;6268468;27;97404;-67
2022/05/25 03:38:22;;;;;;;;;22.00;20.60;;;;;21.79;57.67;98411.38;6264480;27;97466;-67
2022/05/25 03:41:26;;;;;;;;;20.00;19.00;;;;;21.74;57.32;98406.81;6263563;27;98373;-67
2022/05/25 03:44:29;;;;;;;;;20.00;19.00;;;;;21.69;57.53;98409.66;6250744;27;97190;-69
2022/05/25 03:47:33;;;;;;;;;20.00;19.00;;;;;21.60;57.66;98406.78;6285500;27;96706;-67
2022/05/25 03:50:39;;;;;;;;;19.00;18.00;;;;;21.55;57.81;98406.09;6259305;27;97409;-69
2022/05/25 03:53:43;;;;;;;;;21.00;17.00;;;;;21.52;57.70;98401.22;6284185;27;97029;-69
2022/05/25 03:56:46;;;;;;;;;20.50;18.50;;;;;21.55;58.19;98400.63;6285729;27;96642;-67
2022/05/25 03:59:50;;;;;;;;;21.00;19.00;;;;;21.55;57.94;98398.66;6284144;27;97452;-69
2022/05/25 04:02:56;;;;;;;;;20.00;18.00;;;;;21.64;58.15;98400.72;6284784;27;97350;-69
2022/05/25 04:06:00;;;;;;;;;20.60;19.60;;;;;21.69;57.92;98406.91;6285424;27;97502;-67
2022/05/25 04:09:05;;;;;;;;;20.40;19.80;;;;;21.78;58.22;98409.75;6285704;27;97366;-67
2022/05/25 04:12:09;;;;;;;;;22.20;20.00;;;;;21.83;58.12;98421.44;6265182;27;98737;-69
2022/05/25 04:15:16;;;;;;;;;24.00;22.00;;;;;21.87;57.80;98421.63;6287733;27;97421;-69
2022/05/25 04:18:19;;;;;;;;;20.20;19.00;;;;;21.90;57.71;98423.75;6287763;27;96499;-66
2022/05/25 04:21:24;;;;;;;;;20.20;18.80;;;;;21.91;57.65;98426.19;6267150;27;98931;-69
2022/05/25 04:24:27;;;;;;;;;22.00;20.00;;;;;21.97;57.51;98429.69;6286335;27;97556;-67
2022/05/25 04:27:31;;;;;;;;;27.60;23.60;;;;;22.02;57.50;98438.63;6283114;27;96681;-67
2022/05/25 04:30:35;;;;;;;;;25.00;23.00;;;;;22.05;57.22;98426.19;6295223;27;96473;-69
2022/05/25 04:33:40;;;;;;;;;25.75;24.75;;;;;22.08;57.11;98436.59;6312778;27;96685;-67
2022/05/25 04:36:45;;;;;;;;;27.40;26.20;;;;;22.13;57.43;98420.00;6264124;27;98279;-67
2022/05/25 04:39:49;;;;;;;;;26.80;24.00;;;;;22.17;57.19;98417.44;6287797;27;97465;-67
2022/05/25 04:42:55;;;;;;;;;26.50;24.50;;;;;22.20;57.17;98420.38;6286498;27;96474;-67
2022/05/25 04:46:01;;;;;;;;;26.00;23.60;;;;;22.17;57.33;98423.75;6269577;27;96865;-70
2022/05/25 04:49:05;;;;;;;;;28.60;23.60;;;;;22.15;57.17;98423.25;6287246;27;96461;-67
2022/05/25 04:52:10;;;;;;;;;25.00;23.00;;;;;22.04;57.50;98438.28;6280668;27;96657;-66
2022/05/25 04:57:19;;;;;;;;;22.00;20.80;;;;;21.97;57.55;98440.66;6287393;27;98129;-68
2022/05/25 04:58:37;;;;;;;;;25.60;22.00;;;;;21.84;57.63;98422.25;6287497;27;96824;-67
2022/05/25 05:01:41;;;;;;;;;25.80;22.00;;;;;21.89;58.19;98433.13;6286088;27;96632;-69
2022/05/25 05:04:46;;;;;;;;;23.50;22.00;;;;;21.92;57.78;98429.75;6285596;27;96622;-66
2022/05/25 05:07:51;;;;;;;;;24.00;22.60;;;;;21.96;58.06;98428.88;6268363;27;96585;-66
2022/05/25 05:10:56;;;;;;;;;26.00;24.00;;;;;22.02;57.85;98426.81;6258862;27;97149;-69
2022/05/25 05:14:00;;;;;;;;;27.25;23.00;;;;;22.09;57.50;98421.72;6236999;27;96975;-68
2022/05/25 05:17:07;;;;;;;;;24.00;23.00;;;;;22.17;57.93;98414.69;6286688;27;97607;-68
2022/05/25 05:20:30;;;;;;;;;27.40;23.00;;;;;22.24;57.45;98424.13;6262727;27;97238;-68
2022/05/25 05:23:37;;;;;;;;;27.00;25.00;;;;;22.37;57.66;98425.22;6283415;27;96962;-69
2022/05/25 05:26:41;;;;;;;;;29.00;25.00;;;;;22.41;56.99;98427.03;6285587;27;98448;-68
2022/05/25 05:29:44;;;;;;;;;26.00;25.00;;;;;22.43;56.80;98429.50;6286719;27;97468;-68
2022/05/25 05:32:49;;;;;;;;;26.00;24.00;;;;;22.50;56.87;98426.31;6287369;27;96442;-67
2022/05/25 05:35:57;;;;;;;;;26.00;24.40;;;;;22.53;56.56;98426.47;6286801;27;96584;-66
2022/05/25 05:39:06;;;;;;;;;25.50;23.00;;;;;22.55;57.08;98424.25;6287082;27;96403;-69
2022/05/25 05:42:13;;;;;;;;;22.80;21.00;;;;;22.67;56.65;98423.72;6286853;27;97482;-67
2022/05/25 05:45:20;;;;;;;;;24.60;23.00;;;;;22.66;56.71;98413.84;6268264;27;97792;-66
2022/05/25 05:48:27;;;;;;;;;23.20;21.80;;;;;22.80;56.33;98415.44;6268873;27;96547;-66
2022/05/25 05:51:31;;;;;;;;;22.80;20.80;;;;;22.92;56.11;98408.56;6267071;27;99387;-69
2022/05/25 05:54:37;;;;;;;;;25.00;21.00;;;;;22.98;55.45;98404.53;6286183;27;96471;-66
2022/05/25 05:57:41;;;;;;;;;22.60;19.60;;;;;22.99;54.70;98415.22;6254489;27;98425;-69
2022/05/25 06:00:44;;;;;;;;;22.00;20.20;;;;;22.97;54.72;98405.69;6288701;27;96748;-69
2022/05/25 06:03:48;;;;;;;;;24.00;22.00;;;;;22.87;55.40;98412.25;6253654;27;98717;-66
2022/05/25 06:06:51;;;;;;;;;27.00;23.50;;;;;22.84;55.55;98408.19;6270505;27;98464;-69
2022/05/25 06:09:57;;;;;;;;;22.60;21.00;;;;;22.85;55.01;98420.78;6286299;27;97078;-67
2022/05/25 06:13:01;;;;;;;;;22.00;20.00;;;;;22.89;55.26;98409.97;6287825;27;97429;-70
2022/05/25 06:19:40;;;;;;;;;19.40;17.40;;;;;22.81;55.26;98421.75;6205656;28;98357;-67
2022/05/25 06:22:46;;;;;;;;;22.75;20.75;;;;;22.92;54.65;98425.06;6205957;28;96878;-70
2022/05/25 06:25:51;;;;;;;;;22.00;19.00;;;;;22.90;54.31;98428.09;6283523;27;97503;-69
2022/05/25 06:28:54;;;;;;;;;22.80;19.80;;;;;23.02;54.55;98422.81;6286123;27;96683;-67
2022/05/25 06:31:58;;;;;;;;;18.60;18.00;;;;;23.18;54.28;98426.00;6288469;27;96442;-70
2022/05/25 06:35:02;;;;;;;;;20.00;18.00;;;;;23.30;53.80;98426.25;6288627;27;97130;-67
2022/05/25 06:38:06;;;;;;;;;20.60;17.60;;;;;23.38;53.62;98430.16;6270615;27;97449;-68
2022/05/25 06:41:10;;;;;;;;;21.40;19.40;;;;;23.56;53.59;98418.13;6288281;27;96919;-69
2022/05/25 06:44:15;;;;;;;;;22.40;20.00;;;;;23.74;53.27;98409.63;6264131;27;98495;-66
2022/05/25 06:47:19;;;;;;;;;23.60;20.00;;;;;23.98;52.25;98411.97;6288031;27;96884;-66
2022/05/25 06:50:23;;;;;;;;;20.40;18.00;;;;;24.09;51.35;98398.69;6288222;27;97635;-69
2022/05/25 06:53:26;;;;;;;;;23.00;21.00;;;;;24.32;51.50;98402.16;6288476;27;97121;-70
2022/05/25 06:56:31;;;;;;;;;21.00;20.00;;;;;24.50;51.45;98390.00;6262498;27;98451;-68
2022/05/25 06:59:34;;;;;;;;;22.00;20.00;;;;;24.76;50.99;98395.50;6284557;27;97052;-69
2022/05/25 07:02:38;;;;;;;;;22.00;20.80;;;;;24.95;50.54;98404.25;6289423;27;97549;-67
2022/05/25 07:05:41;;;;;;;;;22.40;20.00;;;;;25.00;49.72;98410.41;6289167;27;96476;-66
2022/05/25 07:08:44;;;;;;;;;19.00;18.50;;;;;25.09;49.02;98417.84;6270783;27;98443;-66
2022/05/25 07:11:52;;;;;;;;;23.75;20.00;;;;;25.09;48.49;98423.38;6271055;27;97417;-66
2022/05/25 07:14:55;;;;;;;;;24.75;20.00;;;;;25.14;48.60;98417.66;6264418;27;97442;-67
2022/05/25 07:17:59;;;;;;;;;23.80;20.00;;;;;25.27;49.08;98416.66;6253798;27;100159;-66
2022/05/25 07:21:06;;;;;;;;;22.00;19.00;;;;;25.43;48.72;98421.31;6245369;27;99527;-69
2022/05/25 07:24:10;;;;;;;;;22.00;19.00;;;;;25.45;48.39;98423.75;6287819;27;96605;-69
2022/05/25 07:27:15;;;;;;;;;21.00;19.00;;;;;25.57;46.97;98434.13;6271168;27;97598;-67
2022/05/25 07:30:19;;;;;;;;;23.00;19.00;;;;;25.58;46.69;98431.03;6289102;27;97595;-67
2022/05/25 07:33:22;;;;;;;;;22.60;20.40;;;;;25.60;47.38;98431.53;6262549;27;97437;-69
2022/05/25 07:36:26;;;;;;;;;23.20;22.20;;;;;25.61;47.22;98413.81;6263681;27;96570;-69
2022/05/25 07:39:41;;;;;;;;;22.60;21.00;;;;;25.59;47.72;98418.06;6266564;27;97857;-66
2022/05/25 07:42:49;;;;;;;;;24.00;22.00;;;;;25.61;47.91;98411.03;6292251;27;96556;-66
2022/05/25 07:45:53;;;;;;;;;26.33;22.33;;;;;25.69;48.38;98404.69;6288405;27;97160;-69
2022/05/25 07:48:58;;;;;;;;;21.50;20.00;;;;;25.85;48.04;98407.69;6288707;27;96564;-69
2022/05/25 07:52:02;;;;;;;;;22.00;21.00;;;;;26.01;47.11;98405.97;6252636;27;99655;-66
2022/05/25 07:55:09;;;;;;;;;21.00;19.50;;;;;26.51;45.27;98408.72;6288661;27;97503;-67
2022/05/25 07:58:13;;;;;;;;;18.00;17.25;;;;;26.79;45.07;98411.72;6249182;27;98402;-68
2022/05/25 08:05:43;;;;;;;;;21.00;19.40;;;;;26.95;44.13;98407.22;6269756;27;99458;-68
2022/05/25 08:08:13;;;;;;;;;21.80;18.80;;;;;27.39;43.67;98400.06;6270246;27;96461;-70
2022/05/25 08:11:20;;;;;;;;;26.00;21.60;;;;;27.47;43.47;98404.69;6270616;27;96512;-67
2022/05/25 08:14:26;;;;;;;;;23.25;21.75;;;;;27.47;43.03;98415.75;6270411;27;97575;-68
2022/05/25 08:17:29;;;;;;;;;23.00;22.00;;;;;27.50;43.09;98419.84;6288302;27;96493;-70
2022/05/25 08:20:33;;;;;;;;;23.50;22.00;;;;;27.55;42.96;98425.97;6269335;27;97151;-67
2022/05/25 08:23:36;;;;;;;;;25.25;24.00;;;;;27.52;42.25;98425.84;6287806;27;97559;-68
2022/05/25 08:26:40;;;;;;;;;24.80;22.80;;;;;27.55;43.21;98427.94;6287974;27;96787;-68
2022/05/25 08:29:44;;;;;;;;;23.00;22.00;;;;;27.56;43.20;98422.03;6269132;27;99427;-69
2022/05/25 08:32:48;;;;;;;;;26.60;23.00;;;;;27.63;43.34;98420.66;6268672;27;96731;-67
2022/05/25 08:35:52;;;;;;;;;24.40;22.40;;;;;27.70;42.57;98423.69;6287422;27;96770;-68
2022/05/25 08:38:56;;;;;;;;;25.00;23.00;;;;;27.62;42.75;98425.38;6287801;27;96609;-66
2022/05/25 08:42:05;;;;;;;;;23.00;21.00;;;;;27.63;44.16;98427.00;6288347;27;96675;-66
2022/05/25 08:45:10;;;;;;;;;27.00;24.00;;;;;27.45;42.87;98429.16;6268723;27;99672;-66
2022/05/25 08:48:16;;;;;;;;;26.00;23.00;;;;;27.28;43.47;98432.09;6268927;27;97142;-69
2022/05/25 08:51:25;;;;;;;;;26.60;23.80;;;;;27.17;43.11;98428.19;6269801;27;97130;-66
2022/05/25 08:54:31;;;;;;;;;24.60;22.60;;;;;27.31;43.47;98430.63;6287207;27;96847;-66
2022/05/25 08:57:39;;;;;;;;;25.75;22.25;;;;;27.50;43.15;98425.38;6267783;27;97777;-66
2022/05/25 09:00:48;;;;;;;;;26.00;23.00;;;;;27.93;42.52;98416.53;6267283;27;96608;-67
2022/05/25 09:04:03;;;;;;;;;25.00;23.00;;;;;28.46;41.02;98412.66;6267942;27;96760;-70
2022/05/25 09:07:14;;;;;;;;;25.25;23.00;;;;;29.06;40.76;98416.41;6287494;27;97132;-69
2022/05/25 09:10:18;;;;;;;;;27.00;25.00;;;;;29.50;41.75;98412.47;6267839;27;99519;-70
2022/05/25 09:13:29;;;;;;;;;29.20;26.40;;;;;29.50;41.23;98412.47;6260700;27;97473;-70
2022/05/25 09:16:37;;;;;;;;;30.40;28.00;;;;;29.37;40.94;98419.25;6261473;27;97544;-70
2022/05/25 09:19:44;;;;;;;;;26.00;24.50;;;;;29.19;40.11;98424.28;6280338;27;97566;-69
2022/05/25 09:22:48;;;;;;;;;32.25;26.50;;;;;29.02;40.06;98421.03;6286583;27;96576;-69
2022/05/25 09:25:51;;;;;;;;;29.60;27.00;;;;;28.79;41.13;98429.09;6266498;27;97570;-67
2022/05/25 09:28:59;;;;;;;;;29.00;27.00;;;;;28.53;41.53;98437.03;6287095;27;96973;-69
2022/05/25 09:32:17;;;;;;;;;26.60;24.00;;;;;28.18;42.11;98431.19;6290840;27;97453;-69
2022/05/25 09:35:26;;;;;;;;;29.80;26.00;;;;;27.96;42.11;98429.66;6291839;27;96380;-67
2022/05/25 09:38:42;;;;;;;;;32.40;28.60;;;;;27.69;42.72;98438.66;6284774;27;96670;-67
2022/05/25 09:41:48;;;;;;;;;29.60;26.00;;;;;27.30;43.76;98440.06;6288679;27;96719;-69
2022/05/25 09:44:53;;;;;;;;;27.00;25.00;;;;;26.91;44.49;98405.47;6290952;27;96906;-69
2022/05/25 09:47:58;;;;;;;;;29.50;28.25;;;;;26.94;44.72;98435.22;6290338;27;97544;-67
2022/05/25 09:51:14;;;;;;;;;33.00;29.00;;;;;26.77;45.32;98435.38;6272208;27;97870;-67
2022/05/25 09:54:27;;;;;;;;;30.40;28.00;;;;;26.77;45.47;98421.53;6290841;27;97098;-69
2022/05/25 09:57:34;;;;;;;;;31.33;26.67;;;;;26.78;45.35;98434.22;6290920;27;97112;-69
2022/05/25 10:00:52;;;;;;;;;30.40;27.00;;;;;26.77;45.45;98432.59;6252088;27;98081;-69
2022/05/25 10:03:57;;;;;;;;;27.00;26.00;;;;;26.81;45.86;98428.81;6278279;27;98382;-67
2022/05/25 10:07:01;;;;;;;;;32.00;29.00;;;;;26.64;45.39;98427.00;6271529;27;97206;-69
2022/05/25 10:10:10;;;;;;;;;29.00;27.60;;;;;26.48;46.16;98422.44;6270745;27;96733;-69
2022/05/25 10:13:17;;;;;;;;;34.00;27.00;;;;;26.31;46.42;98415.06;6267323;27;97534;-69
2022/05/25 10:16:22;;;;;;;;;30.20;27.20;;;;;26.27;46.57;98434.28;6271707;27;97266;-69
2022/05/25 10:19:27;;;;;;;;;35.20;31.00;;;;;26.08;46.84;98433.88;6290481;27;97511;-66
2022/05/25 10:22:33;;;;;;;;;30.00;27.00;;;;;26.07;47.19;98436.97;6286192;27;98096;-69
2022/05/25 10:25:42;;;;;;;;;35.40;29.60;;;;;25.97;47.32;98440.94;6271351;27;97095;-69
2022/05/25 10:28:48;;;;;;;;;32.00;28.00;;;;;25.73;47.32;98440.72;6271145;27;97365;-66
2022/05/25 10:38:43;;;;;;;;;31.00;28.40;;;;;25.39;47.77;98449.91;6290721;27;97019;-69
2022/05/25 10:42:00;;;;;;;;;31.60;28.00;;;;;25.34;48.27;98450.09;6288553;27;96757;-66
2022/05/25 10:45:10;;;;;;;;;31.40;28.00;;;;;25.26;48.43;98448.16;6271860;27;97761;-69
2022/05/25 10:48:19;;;;;;;;;30.00;27.20;;;;;25.15;48.79;98453.22;6289874;27;96767;-66
2022/05/25 10:51:29;;;;;;;;;32.25;28.00;;;;;24.83;49.33;98437.16;6288079;27;97441;-66
2022/05/25 10:54:47;;;;;;;;;30.50;27.75;;;;;24.87;49.49;98458.28;6280039;27;97101;-69
2022/05/25 10:58:06;;;;;;;;;27.00;24.40;;;;;24.71;49.57;98462.63;6285757;27;97462;-69
2022/05/25 11:01:33;;;;;;;;;27.80;25.80;;;;;24.49;50.02;98462.78;6266636;27;97450;-66
2022/05/25 11:05:09;;;;;;;;;30.00;26.00;;;;;24.32;50.56;98466.31;6268159;27;97302;-68
2022/05/25 11:08:27;;;;;;;;;25.40;23.40;;;;;24.17;51.24;98473.09;6285944;27;96738;-66
2022/05/25 11:11:43;;;;;;;;;22.00;21.80;;;;;24.03;51.35;98499.13;6269918;27;97541;-69
2022/05/25 11:15:02;;;;;;;;;8.00;7.00;;;;;23.62;48.44;98510.41;6288154;27;97315;-67
2022/05/25 11:18:26;;;;;;;;;5.00;5.00;;;;;22.93;48.60;98504.44;6288200;27;96521;-69
2022/05/25 11:21:41;;;;;;;;;5.00;4.00;;;;;22.54;49.16;98517.97;6288443;27;96760;-69
2022/05/25 11:25:08;;;;;;;;;4.40;4.00;;;;;22.21;50.14;98511.81;6249697;27;98471;-69
2022/05/25 11:28:27;;;;;;;;;6.00;5.00;;;;;21.73;50.87;98508.63;6289577;27;96973;-67
2022/05/25 11:31:37;;;;;;;;;5.00;5.00;;;;;21.43;51.34;98508.06;6272016;27;97400;-67
2022/05/25 11:34:54;;;;;;;;;4.60;4.00;;;;;21.13;52.09;98520.38;6290061;27;96490;-67
2022/05/25 11:38:11;;;;;;;;;5.00;4.00;;;;;21.04;52.46;98537.75;6289692;27;97404;-67
2022/05/25 11:41:33;;;;;;;;;5.00;4.00;;;;;20.84;52.40;98521.63;6290038;27;96457;-67
2022/05/25 11:44:49;;;;;;;;;4.00;4.00;;;;;20.94;52.68;98530.50;6271016;27;99686;-67
2022/05/25 11:48:17;;;;;;;;;4.00;4.00;;;;;20.85;53.28;98535.03;6270057;27;99448;-68
2022/05/25 11:51:24;;;;;;;;;5.80;5.00;;;;;20.93;53.37;98536.28;6289935;27;97500;-67
2022/05/25 11:54:44;;;;;;;;;4.60;4.00;;;;;20.99;53.16;98546.88;6269920;27;96663;-67
2022/05/25 11:58:01;;;;;;;;;7.00;6.00;;;;;21.04;53.47;98567.91;6289521;27;96553;-69
2022/05/25 12:01:14;;;;;;;;;6.75;6.00;;;;;21.04;53.00;98571.47;6270344;27;96485;-70
2022/05/25 12:04:46;;;;;;;;;5.00;4.00;;;;;21.08;52.68;98585.38;6288254;27;97539;-66
2022/05/25 12:08:03;;;;;;;;;4.80;4.00;;;;;20.93;52.95;98575.47;6263656;27;97465;-68
2022/05/25 12:11:12;;;;;;;;;5.00;5.00;;;;;20.88;53.27;98578.28;6264289;27;96737;-68
2022/05/25 12:14:49;;;;;;;;;6.00;5.00;;;;;20.85;53.14;98583.53;6276689;27;96804;-70
2022/05/25 12:18:07;;;;;;;;;4.00;4.00;;;;;20.82;53.10;98597.84;6289171;27;96413;-67
2022/05/25 12:21:17;;;;;;;;;5.40;4.00;;;;;20.78;53.42;98605.81;6289171;27;98050;-68
2022/05/25 12:24:25;;;;;;;;;6.00;5.00;;;;;20.75;53.22;98609.97;6288199;27;97323;-70
2022/05/25 12:27:35;;;;;;;;;6.00;5.00;;;;;20.73;53.44;98606.69;6289212;27;97478;-69
2022/05/25 12:30:43;;;;;;;;;5.40;4.00;;;;;20.72;53.63;98616.03;6288803;27;97508;-66
2022/05/25 12:33:48;;;;;;;;;5.25;5.25;;;;;20.67;53.54;98643.47;6271274;27;96942;-67
2022/05/25 12:36:52;;;;;;;;;6.00;5.40;;;;;20.65;53.94;98636.69;6270173;27;97342;-70
2022/05/25 12:40:02;;;;;;;;;6.60;6.00;;;;;20.73;54.07;98630.53;6287946;27;96632;-68
2022/05/25 12:43:05;;;;;;;;;5.00;5.00;;;;;20.71;54.27;98622.63;6251938;27;97985;-69
2022/05/25 12:49:34;;;;;;;;;5.00;5.00;;;;;20.81;54.67;98635.38;6279913;27;96468;-68
2022/05/25 12:52:43;;;;;;;;;5.40;5.40;;;;;20.78;53.99;98641.44;6269076;27;96850;-66
2022/05/25 12:55:54;;;;;;;;;5.00;5.00;;;;;20.80;54.13;98650.19;6288645;27;96360;-67
2022/05/25 12:59:01;;;;;;;;;5.00;5.00;;;;;20.79;54.10;98650.47;6286322;27;97917;-69
2022/05/25 13:02:29;;;;;;;;;6.00;5.00;;;;;20.63;54.72;98634.22;6269853;27;96905;-69
2022/05/25 13:05:58;;;;;;;;;6.00;5.40;;;;;20.75;54.33;98636.56;6287334;27;96979;-67
2022/05/25 13:09:04;;;;;;;;;7.00;6.20;;;;;20.77;54.88;98639.00;6279996;27;96557;-67
2022/05/25 13:12:44;;;;;;;;;6.00;6.00;;;;;20.75;54.74;98642.84;6244360;27;99634;-66
2022/05/25 13:15:47;;;;;;;;;6.40;5.40;;;;;20.72;55.28;98656.34;6223232;27;97241;-67
2022/05/25 13:18:55;;;;;;;;;5.00;5.00;;;;;20.70;53.25;98666.75;6279964;27;96940;-67
2022/05/25 13:22:21;;;;;;;;;4.80;4.00;;;;;20.66;52.80;98680.22;6287818;27;96528;-67
2022/05/25 13:25:30;;;;;;;;;3.00;3.00;;;;;20.59;51.67;98681.66;6252836;27;99557;-68
2022/05/25 13:28:49;;;;;;;;;3.00;3.00;;;;;20.55;51.57;98680.63;6269624;27;97454;-70
2022/05/25 13:32:00;;;;;;;;;3.40;3.00;;;;;20.50;51.64;98694.38;6287421;27;96560;-69
2022/05/25 13:35:30;;;;;;;;;3.00;3.00;;;;;20.44;51.89;98693.63;6286502;27;97433;-70
2022/05/25 13:38:39;;;;;;;;;3.00;3.00;;;;;20.32;51.98;98687.72;6287692;27;97506;-68
2022/05/25 13:41:45;;;;;;;;;2.00;2.00;;;;;20.33;51.44;98699.50;6287211;27;96773;-70
2022/05/25 13:44:52;;;;;;;;;3.00;3.00;;;;;20.33;51.29;98700.28;6287377;27;96790;-68
2022/05/25 13:47:58;;;;;;;;;2.00;2.00;;;;;20.39;51.21;98710.09;6287508;27;96354;-66
2022/05/25 13:51:03;;;;;;;;;3.00;3.00;;;;;20.44;51.34;98707.31;6265180;27;97036;-69
2022/05/25 13:54:21;;;;;;;;;4.00;4.00;;;;;20.40;50.93;98708.19;6282857;27;97426;-69
2022/05/25 13:57:49;;;;;;;;;2.50;2.50;;;;;20.29;50.89;98708.25;6268561;27;96705;-67
2022/05/25 14:01:07;;;;;;;;;4.00;3.00;;;;;20.28;50.52;98709.34;6265725;27;97218;-66
2022/05/25 14:04:23;;;;;;;;;3.00;2.00;;;;;20.35;51.50;98711.78;6244766;27;97345;-69
2022/05/25 14:07:37;;;;;;;;;2.00;2.00;;;;;20.30;50.32;98720.00;6257820;27;96695;-67
2022/05/25 14:10:58;;;;;;;;;2.00;2.00;;;;;20.18;50.76;98723.13;6286520;27;97762;-67
2022/05/25 14:14:03;;;;;;;;;3.00;3.00;;;;;20.14;51.31;98733.03;6280390;27;98461;-67
2022/05/25 14:17:18;;;;;;;;;2.00;2.00;;;;;20.06;51.69;98735.56;6259847;27;96654;-71
2022/05/25 14:20:25;;;;;;;;;4.00;3.00;;;;;19.79;52.53;98725.94;6266120;27;96372;-70
2022/05/25 14:23:32;;;;;;;;;3.00;3.00;;;;;19.85;52.62;98740.38;6278297;27;97090;-67
2022/05/25 14:26:38;;;;;;;;;3.00;3.00;;;;;19.84;52.74;98738.78;6291642;27;96230;-67
2022/05/25 14:29:43;;;;;;;;;2.00;2.00;;;;;19.80;52.80;98745.91;6288293;27;97567;-69
2022/05/25 14:32:59;;;;;;;;;3.00;3.00;;;;;19.78;52.68;98750.84;6282164;27;96677;-69
2022/05/25 14:36:03;;;;;;;;;4.00;4.00;;;;;19.65;53.55;98740.53;6288650;27;96509;-68
2022/05/25 14:39:14;;;;;;;;;4.00;3.00;;;;;19.72;53.68;98735.56;6272607;27;97671;-70
2022/05/25 14:42:21;;;;;;;;;4.75;4.75;;;;;19.68;53.76;98754.47;6291233;27;96548;-66
2022/05/25 14:45:25;;;;;;;;;4.80;4.80;;;;;19.63;54.03;98757.25;6290547;27;97614;-66
2022/05/25 14:48:29;;;;;;;;;5.00;4.00;;;;;19.66;54.20;98750.38;6272139;27;96452;-70
2022/05/25 14:51:37;;;;;;;;;5.00;4.20;;;;;19.61;54.60;98744.94;6255178;27;96638;-67
2022/05/25 14:54:42;;;;;;;;;4.80;4.80;;;;;19.73;54.54;98761.81;6289384;27;96506;-67
2022/05/25 14:57:45;;;;;;;;;6.60;5.60;;;;;19.71;54.83;98758.53;6270709;27;98477;-69